createdAt,value
2022-09-12T00:01:22.538Z,99700.59
2022-09-12T00:03:54.073Z,99700.84
2022-09-12T00:06:24.898Z,99695.97
2022-09-12T00:08:55.269Z,99693.53
2022-09-12T00:11:25.055Z,99687.06
2022-09-12T00:13:53.581Z,99685.78
2022-09-12T00:16:24.538Z,99691.56
2022-09-12T00:18:53.860Z,99688.06
2022-09-12T00:21:23.587Z,99683.53
2022-09-12T00:23:52.105Z,99678.59
2022-09-12T00:26:22.083Z,99686.47
2022-09-12T00:28:52.328Z,99694.19
2022-09-12T00:31:24.264Z,99686.94
2022-09-12T00:33:52.773Z,99688.75
2022-09-12T00:36:23.234Z,99692.97
2022-09-12T00:38:54.845Z,99688.75
2022-09-12T00:41:25.534Z,99693.56
2022-09-12T00:43:56.442Z,99701.59
2022-09-12T00:46:32.813Z,99697.03
2022-09-12T00:49:05.006Z,99692.47
2022-09-12T00:51:36.243Z,99695.22
2022-09-12T00:54:09.592Z,99696.75
2022-09-12T00:56:40.970Z,99690.38
2022-09-12T00:59:15.673Z,99691.09
2022-09-12T01:01:46.129Z,99689.53
2022-09-12T01:04:14.823Z,99681.47
2022-09-12T01:06:44.940Z,99681.59
2022-09-12T01:09:18.365Z,99678.94
2022-09-12T01:11:49.019Z,99678.81
2022-09-12T01:14:19.432Z,99678.94
2022-09-12T01:16:48.693Z,99670.41
2022-09-12T01:19:37.949Z,99683.03
2022-09-12T01:22:24.433Z,99678.94
2022-09-12T01:25:05.676Z,99672.44
2022-09-12T01:27:58.803Z,99684.84
2022-09-12T01:30:43.242Z,99680.63
2022-09-12T01:33:55.968Z,99680.63
2022-09-12T01:36:35.281Z,99675.31
2022-09-12T01:39:06.869Z,99670.72
2022-09-12T01:41:50.127Z,99677.00
2022-09-12T01:44:30.631Z,99663.03
2022-09-12T01:47:08.626Z,99678.59
2022-09-12T01:49:46.462Z,99682.84
2022-09-12T01:52:19.791Z,99676.81
2022-09-12T01:54:52.737Z,99671.03
2022-09-12T01:57:26.586Z,99671.28
2022-09-12T02:00:00.494Z,99663.81
2022-09-12T02:02:35.426Z,99677.81
2022-09-12T02:05:09.948Z,99665.03
2022-09-12T02:07:43.358Z,99673.00
2022-09-12T02:10:16.232Z,99679.50
2022-09-12T02:12:49.121Z,99679.63
2022-09-12T02:15:22.056Z,99681.66
2022-09-12T02:17:53.435Z,99677.81
2022-09-12T02:20:44.380Z,99682.13
2022-09-12T02:23:18.277Z,99688.50
2022-09-12T02:25:50.053Z,99696.03
2022-09-12T02:28:23.587Z,99690.41
2022-09-12T02:31:01.693Z,99689.09
2022-09-12T02:33:39.700Z,99687.78
2022-09-12T02:36:22.107Z,99694.25
2022-09-12T02:38:50.576Z,99689.69
2022-09-12T02:41:20.917Z,99689.59
2022-09-12T02:43:51.577Z,99676.69
2022-09-12T02:46:23.936Z,99691.97
2022-09-12T02:48:53.681Z,99687.72
2022-09-12T02:51:23.746Z,99698.53
2022-09-12T02:53:52.339Z,99692.00
2022-09-12T02:56:26.037Z,99693.25
2022-09-12T02:58:55.750Z,99684.38
2022-09-12T03:01:36.181Z,99694.31
2022-09-12T03:04:20.631Z,99695.44
2022-09-12T03:06:59.870Z,99702.25
2022-09-12T03:09:37.987Z,99694.88
2022-09-12T03:12:15.474Z,99700.63
2022-09-12T03:15:01.812Z,99692.06
2022-09-12T03:17:41.962Z,99703.91
2022-09-12T03:20:13.146Z,99701.47
2022-09-12T03:22:51.321Z,99713.25
2022-09-12T03:25:23.511Z,99717.50
2022-09-12T03:27:58.693Z,99715.63
2022-09-12T03:30:27.457Z,99703.91
2022-09-12T03:32:56.721Z,99712.91
2022-09-12T03:35:26.808Z,99717.13
2022-09-12T03:37:54.948Z,99715.78
2022-09-12T03:40:23.169Z,99705.81
2022-09-12T03:42:51.441Z,99709.09
2022-09-12T03:45:19.603Z,99699.03
2022-09-12T03:47:47.772Z,99699.66
2022-09-12T03:50:16.000Z,99711.84
2022-09-12T03:52:45.481Z,99727.00
2022-09-12T03:55:13.732Z,99715.56
2022-09-12T03:57:41.744Z,99712.78
2022-09-12T04:00:11.036Z,99711.84
2022-09-12T04:02:39.080Z,99710.97
2022-09-12T04:05:08.340Z,99713.81
2022-09-12T04:07:36.507Z,99716.75
2022-09-12T04:10:06.856Z,99701.56
2022-09-12T04:12:37.889Z,99702.19
2022-09-12T04:15:07.550Z,99711.03
2022-09-12T04:17:36.184Z,99704.97
2022-09-12T04:20:04.642Z,99711.13
2022-09-12T04:22:33.460Z,99704.53
2022-09-12T04:25:01.622Z,99705.50
2022-09-12T04:27:31.125Z,99692.50
2022-09-12T04:29:59.682Z,99703.84
2022-09-12T04:32:27.749Z,99710.59
2022-09-12T04:34:55.777Z,99705.56
2022-09-12T04:37:24.742Z,99706.16
2022-09-12T04:39:57.893Z,99704.84
2022-09-12T04:42:26.420Z,99701.50
2022-09-12T04:44:55.937Z,99708.22
2022-09-12T04:47:24.285Z,99707.66
2022-09-12T04:49:52.544Z,99714.31
2022-09-12T04:52:20.572Z,99723.88
2022-09-12T04:54:48.622Z,99698.31
2022-09-12T04:57:16.992Z,99707.84
2022-09-12T04:59:45.395Z,99713.47
2022-09-12T05:02:14.982Z,99711.84
2022-09-12T05:04:43.138Z,99711.78
2022-09-12T05:07:11.803Z,99717.81
2022-09-12T05:09:39.945Z,99727.66
2022-09-12T05:12:08.559Z,99712.34
2022-09-12T05:14:36.942Z,99721.72
2022-09-12T05:17:06.297Z,99719.22
2022-09-12T05:19:36.027Z,99733.63
2022-09-12T05:22:05.139Z,99726.53
2022-09-12T05:24:33.220Z,99764.38
2022-09-12T05:27:01.309Z,99756.25
2022-09-12T05:29:29.603Z,99752.00
2022-09-12T05:31:57.841Z,99757.56
2022-09-12T05:34:28.011Z,99752.19
2022-09-12T05:36:57.481Z,99755.06
2022-09-12T05:39:25.810Z,99751.84
2022-09-12T05:41:54.438Z,99750.69
2022-09-12T05:44:22.604Z,99758.88
2022-09-12T05:46:51.473Z,99761.13
2022-09-12T05:49:19.594Z,99753.28
2022-09-12T05:51:47.803Z,99759.69
2022-09-12T05:54:21.371Z,99762.91
2022-09-12T05:56:49.583Z,99747.72
2022-09-12T05:59:19.660Z,99758.66
2022-09-12T06:01:48.689Z,99758.00
2022-09-12T06:04:17.464Z,99760.53
2022-09-12T06:06:46.969Z,99762.50
2022-09-12T06:09:17.867Z,99755.38
2022-09-12T06:11:47.142Z,99763.41
2022-09-12T06:14:17.225Z,99764.41
2022-09-12T06:16:45.421Z,99761.38
2022-09-12T06:19:16.706Z,99755.75
2022-09-12T06:21:45.441Z,99762.06
2022-09-12T06:24:13.531Z,99765.91
2022-09-12T06:26:43.871Z,99762.16
2022-09-12T06:29:13.493Z,99764.47
2022-09-12T06:31:43.284Z,99775.69
2022-09-12T06:34:12.972Z,99775.28
2022-09-12T06:36:43.086Z,99776.44
2022-09-12T06:39:14.259Z,99766.06
2022-09-12T06:41:44.675Z,99777.53
2022-09-12T06:44:16.310Z,99776.28
2022-09-12T06:46:44.772Z,99772.69
2022-09-12T06:49:13.392Z,99775.53
2022-09-12T06:51:43.414Z,99780.66
2022-09-12T06:54:14.193Z,99782.16
2022-09-12T06:56:43.825Z,99786.00
2022-09-12T06:59:12.070Z,99778.94
2022-09-12T07:01:41.266Z,99783.44
2022-09-12T07:04:09.750Z,99775.00
2022-09-12T07:06:40.038Z,99779.41
2022-09-12T07:09:11.906Z,99778.09
2022-09-12T07:11:41.629Z,99770.13
2022-09-12T07:14:17.030Z,99778.53
2022-09-12T07:16:45.664Z,99778.63
2022-09-12T07:19:14.090Z,99788.03
2022-09-12T07:21:45.953Z,99773.19
2022-09-12T07:24:14.125Z,99781.66
2022-09-12T07:26:44.253Z,99783.34
2022-09-12T07:29:37.019Z,99786.53
2022-09-12T07:32:06.299Z,99784.75
2022-09-12T07:34:35.434Z,99794.16
2022-09-12T07:37:04.064Z,99791.25
2022-09-12T07:39:32.526Z,99800.03
2022-09-12T07:42:01.139Z,99799.44
2022-09-12T07:44:30.707Z,99796.28
2022-09-12T07:46:59.117Z,99792.44
2022-09-12T07:49:27.376Z,99799.34
2022-09-12T07:51:55.509Z,99796.28
2022-09-12T07:54:24.239Z,99784.69
2022-09-12T07:56:52.706Z,99792.31
2022-09-12T07:59:41.514Z,99792.41
2022-09-12T08:02:17.053Z,99803.88
2022-09-12T08:04:45.640Z,99802.03
2022-09-12T08:07:13.755Z,99797.91
2022-09-12T08:09:41.834Z,99794.53
2022-09-12T08:12:10.319Z,99797.19
2022-09-12T08:14:38.433Z,99789.75
2022-09-12T08:17:06.858Z,99797.81
2022-09-12T08:19:36.293Z,99791.97
2022-09-12T08:22:04.707Z,99794.28
2022-09-12T08:24:33.761Z,99798.63
2022-09-12T08:27:01.892Z,99794.09
2022-09-12T08:29:30.084Z,99793.97
2022-09-12T08:31:58.213Z,99802.59
2022-09-12T08:34:27.065Z,99799.84
2022-09-12T08:36:56.675Z,99802.59
2022-09-12T08:39:25.096Z,99801.50
2022-09-12T08:42:01.889Z,99822.28
2022-09-12T08:44:50.371Z,99806.38
2022-09-12T08:47:26.918Z,99797.69
2022-09-12T08:50:04.533Z,99800.28
2022-09-12T08:52:40.503Z,99801.41
2022-09-12T08:55:24.586Z,99790.00
2022-09-12T08:57:53.063Z,99784.50
2022-09-12T09:00:21.961Z,99789.75
2022-09-12T09:03:27.119Z,99795.31
2022-09-12T09:06:04.328Z,99786.41
2022-09-12T09:08:51.398Z,99787.88
2022-09-12T09:11:35.219Z,99774.25
2022-09-12T09:14:33.274Z,99775.59
2022-09-12T09:17:02.018Z,99770.97
2022-09-12T09:19:36.523Z,99777.50
2022-09-12T09:22:08.323Z,99767.31
2022-09-12T09:24:44.087Z,99768.81
2022-09-12T09:27:39.482Z,99809.56
2022-09-12T09:30:14.162Z,99793.88
2022-09-12T09:32:43.376Z,99785.94
2022-09-12T09:35:18.479Z,99785.56
2022-09-12T09:38:02.022Z,99788.31
2022-09-12T09:40:44.681Z,99789.22
2022-09-12T09:43:18.511Z,99780.91
2022-09-12T09:45:47.991Z,99778.75
2022-09-12T09:48:20.208Z,99790.53
2022-09-12T09:50:50.249Z,99790.19
2022-09-12T09:53:28.421Z,99787.06
2022-09-12T09:56:02.646Z,99796.44
2022-09-12T09:58:35.586Z,99794.94
2022-09-12T10:01:06.435Z,99785.28
2022-09-12T10:03:36.242Z,99782.41
2022-09-12T10:06:09.393Z,99775.41
2022-09-12T10:08:39.366Z,99773.50
2022-09-12T10:11:22.980Z,99777.47
2022-09-12T10:13:56.996Z,99775.88
2022-09-12T10:16:28.194Z,99788.94
2022-09-12T10:18:58.062Z,99787.38
2022-09-12T10:21:33.373Z,99787.91
2022-09-12T10:24:18.506Z,99806.09
2022-09-12T10:26:56.444Z,99791.88
2022-09-12T10:29:28.919Z,99803.19
2022-09-12T10:31:58.927Z,99789.34
2022-09-12T10:34:32.586Z,99787.41
2022-09-12T10:37:05.808Z,99797.28
2022-09-12T10:39:36.110Z,99792.47
2022-09-12T10:42:06.871Z,99782.53
2022-09-12T10:44:36.315Z,99783.38
2022-09-12T10:47:22.585Z,99773.41
2022-09-12T10:49:51.136Z,99762.38
2022-09-12T10:52:23.646Z,99757.34
2022-09-12T10:54:51.937Z,99750.97
2022-09-12T10:57:37.991Z,99759.78
2022-09-12T11:00:14.515Z,99752.66
2022-09-12T11:03:04.072Z,99763.34
2022-09-12T11:05:47.425Z,99766.81
2022-09-12T11:08:28.215Z,99770.75
2022-09-12T11:11:01.097Z,99773.88
2022-09-12T11:13:52.694Z,99778.31
2022-09-12T11:16:31.202Z,99777.44
2022-09-12T11:19:16.738Z,99773.56
2022-09-12T11:22:00.229Z,99765.81
2022-09-12T11:25:09.941Z,99765.88
2022-09-12T11:27:56.524Z,99770.97
2022-09-12T11:30:25.995Z,99773.50
2022-09-12T11:33:12.806Z,99773.72
2022-09-12T11:35:51.866Z,99769.28
2022-09-12T11:38:52.810Z,99764.53
2022-09-12T11:41:26.384Z,99765.69
2022-09-12T11:44:02.729Z,99771.34
2022-09-12T11:46:37.456Z,99774.19
2022-09-12T11:49:15.758Z,99776.84
2022-09-12T11:51:51.910Z,99770.75
2022-09-12T11:54:26.925Z,99761.78
2022-09-12T11:57:03.647Z,99748.56
2022-09-12T11:59:37.041Z,99757.00
2022-09-12T12:02:14.445Z,99756.56
2022-09-12T12:04:57.146Z,99744.34
2022-09-12T12:07:25.020Z,99759.03
2022-09-12T12:09:55.790Z,99770.72
2022-09-12T12:12:29.130Z,99741.97
2022-09-12T12:14:59.168Z,99754.63
2022-09-12T12:17:29.836Z,99747.25
2022-09-12T12:20:04.937Z,99744.91
2022-09-12T12:22:35.199Z,99739.56
2022-09-12T12:25:28.860Z,99731.66
2022-09-12T12:28:01.961Z,99732.66
2022-09-12T12:31:03.914Z,99731.66
2022-09-12T12:34:06.096Z,99726.56
2022-09-12T12:36:42.490Z,99728.63
2022-09-12T12:39:55.806Z,99732.50
2022-09-12T12:43:06.513Z,99726.28
2022-09-12T12:46:13.054Z,99734.47
2022-09-12T12:49:12.272Z,99722.72
2022-09-12T12:52:04.498Z,99726.06
2022-09-12T12:54:56.331Z,99736.53
2022-09-12T12:57:40.726Z,99732.31
2022-09-12T13:00:30.074Z,99719.59
2022-09-12T13:03:01.063Z,99727.16
2022-09-12T13:05:39.706Z,99732.69
2022-09-12T13:08:11.611Z,99726.50
2022-09-12T13:10:40.282Z,99725.97
2022-09-12T13:13:09.896Z,99710.47
2022-09-12T13:15:52.799Z,99722.19
2022-09-12T13:18:28.847Z,99724.16
2022-09-12T13:21:07.333Z,99719.78
2022-09-12T13:23:35.880Z,99713.38
2022-09-12T13:26:05.177Z,99717.41
2022-09-12T13:28:33.277Z,99714.69
2022-09-12T13:31:10.903Z,99708.28
2022-09-12T13:33:43.922Z,99703.44
2022-09-12T13:36:48.486Z,99710.66
2022-09-12T13:39:20.482Z,99709.66
2022-09-12T13:42:23.216Z,99702.28
2022-09-12T13:44:57.260Z,99694.88
2022-09-12T13:47:29.670Z,99701.88
2022-09-12T13:49:58.510Z,99708.84
2022-09-12T13:52:31.868Z,99705.09
2022-09-12T13:55:01.924Z,99702.34
2022-09-12T13:57:32.986Z,99702.78
2022-09-12T14:00:02.623Z,99704.84
2022-09-12T14:02:31.497Z,99706.94
2022-09-12T14:05:10.693Z,99703.31
2022-09-12T14:07:59.474Z,99721.56
2022-09-12T14:10:34.209Z,99717.13
2022-09-12T14:13:05.621Z,99707.56
2022-09-12T14:15:37.300Z,99712.38
2022-09-12T14:18:08.790Z,99707.38
2022-09-12T14:20:39.582Z,99706.53
2022-09-12T14:23:20.252Z,99709.16
2022-09-12T14:25:49.594Z,99703.72
2022-09-12T14:28:23.671Z,99698.06
2022-09-12T14:31:05.068Z,99706.44
2022-09-12T14:33:35.733Z,99699.66
2022-09-12T14:36:22.098Z,99704.41
2022-09-12T14:38:54.477Z,99699.38
2022-09-12T14:41:27.726Z,99704.13
2022-09-12T14:43:59.494Z,99712.22
2022-09-12T14:46:32.110Z,99705.06
2022-09-12T14:49:03.511Z,99699.13
2022-09-12T14:51:35.087Z,99706.84
2022-09-12T14:54:05.082Z,99696.69
2022-09-12T14:56:42.443Z,99698.03
2022-09-12T14:59:30.062Z,99692.44
2022-09-12T15:02:24.398Z,99700.66
2022-09-12T15:04:54.464Z,99689.28
2022-09-12T15:07:34.839Z,99695.19
2022-09-12T15:10:07.389Z,99680.31
2022-09-12T15:12:35.460Z,99687.81
2022-09-12T15:15:14.914Z,99676.75
2022-09-12T15:17:43.372Z,99689.63
2022-09-12T15:20:11.888Z,99691.41
2022-09-12T15:22:41.429Z,99696.44
2022-09-12T15:25:13.580Z,99696.19
2022-09-12T15:27:42.414Z,99697.63
2022-09-12T15:30:12.745Z,99691.72
2022-09-12T15:32:42.144Z,99682.84
2022-09-12T15:35:16.568Z,99684.22
2022-09-12T15:37:44.853Z,99687.63
2022-09-12T15:40:14.452Z,99683.94
2022-09-12T15:42:42.972Z,99685.25
2022-09-12T15:45:20.126Z,99681.44
2022-09-12T15:47:48.364Z,99684.94
2022-09-12T15:50:16.878Z,99675.38
2022-09-12T15:52:44.992Z,99679.72
2022-09-12T15:55:19.320Z,99685.53
2022-09-12T15:57:48.092Z,99692.78
2022-09-12T16:00:18.429Z,99684.69
2022-09-12T16:02:47.404Z,99684.00
2022-09-12T16:05:17.605Z,99686.44
2022-09-12T16:07:46.394Z,99679.56
2022-09-12T16:10:23.365Z,99688.19
2022-09-12T16:12:51.788Z,99695.13
2022-09-12T16:15:21.830Z,99690.56
2022-09-12T16:17:50.462Z,99694.13
2022-09-12T16:20:19.385Z,99693.06
2022-09-12T16:22:47.989Z,99694.63
2022-09-12T16:25:16.209Z,99698.75
2022-09-12T16:27:46.523Z,99694.56
2022-09-12T16:30:14.853Z,99694.75
2022-09-12T16:32:42.976Z,99704.34
2022-09-12T16:35:11.291Z,99695.38
2022-09-12T16:37:39.365Z,99701.31
2022-09-12T16:40:09.450Z,99705.84
2022-09-12T16:42:40.738Z,99698.28
2022-09-12T16:45:13.516Z,99685.06
2022-09-12T16:47:41.766Z,99683.97
2022-09-12T16:50:10.305Z,99687.22
2022-09-12T16:52:38.371Z,99681.75
2022-09-12T16:55:07.513Z,99681.06
2022-09-12T16:57:35.649Z,99681.88
2022-09-12T17:00:04.631Z,99684.56
2022-09-12T17:02:34.164Z,99685.97
2022-09-12T17:05:02.336Z,99685.97
2022-09-12T17:07:30.623Z,99687.78
2022-09-12T17:09:58.864Z,99692.13
2022-09-12T17:12:26.961Z,99693.53
2022-09-12T17:14:55.057Z,99695.75
2022-09-12T17:17:23.388Z,99700.41
2022-09-12T17:19:53.496Z,99699.41
2022-09-12T17:22:21.726Z,99701.91
2022-09-12T17:24:50.341Z,99704.88
2022-09-12T17:27:18.494Z,99706.41
2022-09-12T17:29:46.702Z,99712.56
2022-09-12T17:32:17.553Z,99706.91
2022-09-12T17:34:46.201Z,99713.75
2022-09-12T17:37:15.744Z,99715.25
2022-09-12T17:39:43.845Z,99721.97
2022-09-12T17:42:12.193Z,99719.75
2022-09-12T17:44:40.684Z,99725.06
2022-09-12T17:47:08.821Z,99720.81
2022-09-12T17:49:37.974Z,99728.78
2022-09-12T17:52:06.174Z,99723.97
2022-09-12T17:54:35.772Z,99729.41
2022-09-12T17:57:05.212Z,99722.81
2022-09-12T17:59:33.398Z,99725.72
2022-09-12T18:02:16.406Z,99732.72
2022-09-12T18:04:46.736Z,99734.81
2022-09-12T18:07:15.388Z,99739.44
2022-09-12T18:09:48.173Z,99735.59
2022-09-12T18:12:17.689Z,99741.69
2022-09-12T18:14:46.191Z,99748.25
2022-09-12T18:17:14.816Z,99760.88
2022-09-12T18:19:43.862Z,99760.88
2022-09-12T18:22:12.067Z,99769.78
2022-09-12T18:24:40.211Z,99755.06
2022-09-12T18:27:09.916Z,99766.53
2022-09-12T18:29:38.273Z,99760.06
2022-09-12T18:32:06.992Z,99757.59
2022-09-12T18:34:35.537Z,99772.78
2022-09-12T18:37:05.750Z,99766.47
2022-09-12T18:39:34.100Z,99765.25
2022-09-12T18:42:02.494Z,99765.25
2022-09-12T18:44:32.311Z,99766.53
2022-09-12T18:47:00.906Z,99764.28
2022-09-12T18:49:29.425Z,99758.00
2022-09-12T18:51:57.887Z,99763.03
2022-09-12T18:54:26.506Z,99760.78
2022-09-12T18:56:55.071Z,99761.16
2022-09-12T18:59:24.583Z,99759.25
2022-09-12T19:01:54.431Z,99764.84
2022-09-12T19:04:22.878Z,99758.66
2022-09-12T19:06:51.949Z,99759.06
2022-09-12T19:09:22.140Z,99763.28
2022-09-12T19:11:50.651Z,99762.56
2022-09-12T19:14:21.002Z,99763.03
2022-09-12T19:16:51.168Z,99761.75
2022-09-12T19:19:21.693Z,99765.72
2022-09-12T19:21:50.200Z,99766.09
2022-09-12T19:24:18.811Z,99772.66
2022-09-12T19:26:47.685Z,99768.81
2022-09-12T19:29:17.102Z,99767.84
2022-09-12T19:31:45.927Z,99767.16
2022-09-12T19:34:15.045Z,99768.84
2022-09-12T19:36:46.766Z,99768.84
2022-09-12T19:39:16.624Z,99769.69
2022-09-12T19:41:45.248Z,99759.50
2022-09-12T19:44:13.593Z,99766.72
2022-09-12T19:46:42.089Z,99762.75
2022-09-12T19:49:12.223Z,99756.59
2022-09-12T19:51:40.913Z,99757.53
2022-09-12T19:54:10.724Z,99756.22
2022-09-12T19:56:38.956Z,99757.16
2022-09-12T19:59:07.240Z,99757.66
2022-09-12T20:01:37.282Z,99752.00
2022-09-12T20:04:07.061Z,99755.78
2022-09-12T20:06:35.273Z,99754.78
2022-09-12T20:09:03.791Z,99760.84
2022-09-12T20:11:36.099Z,99762.16
2022-09-12T20:14:04.507Z,99764.72
2022-09-12T20:16:35.798Z,99754.81
2022-09-12T20:19:07.260Z,99757.69
2022-09-12T20:21:36.350Z,99750.25
2022-09-12T20:24:06.511Z,99758.47
2022-09-12T20:26:36.239Z,99769.34
2022-09-12T20:29:05.496Z,99768.41
2022-09-12T20:31:34.668Z,99764.06
2022-09-12T20:34:03.149Z,99762.09
2022-09-12T20:36:31.369Z,99767.06
2022-09-12T20:39:01.420Z,99766.69
2022-09-12T20:41:31.526Z,99757.97
2022-09-12T20:44:01.097Z,99765.31
2022-09-12T20:46:30.351Z,99782.75
2022-09-12T20:48:58.966Z,99783.66
2022-09-12T20:51:29.794Z,99783.56
2022-09-12T20:53:59.070Z,99786.59
2022-09-12T20:56:28.670Z,99790.81
2022-09-12T20:58:57.408Z,99795.06
2022-09-12T21:01:28.269Z,99788.13
2022-09-12T21:03:56.417Z,99788.34
2022-09-12T21:06:25.054Z,99787.22
2022-09-12T21:08:53.169Z,99789.97
2022-09-12T21:11:22.138Z,99791.56
2022-09-12T21:13:50.433Z,99800.03
2022-09-12T21:16:21.585Z,99793.66
2022-09-12T21:18:55.188Z,99781.56
2022-09-12T21:21:24.403Z,99792.66
2022-09-12T21:23:55.468Z,99799.22
2022-09-12T21:26:24.366Z,99794.88
2022-09-12T21:28:52.483Z,99803.16
2022-09-12T21:31:20.659Z,99803.28
2022-09-12T21:33:50.483Z,99804.47
2022-09-12T21:36:19.050Z,99802.78
2022-09-12T21:38:47.089Z,99808.50
2022-09-12T21:41:17.239Z,99814.22
2022-09-12T21:43:45.969Z,99807.66
2022-09-12T21:46:14.447Z,99808.91
2022-09-12T21:48:44.085Z,99819.94
2022-09-12T21:51:13.545Z,99830.72
2022-09-12T21:53:45.196Z,99825.41
2022-09-12T21:56:16.890Z,99818.59
2022-09-12T21:58:44.956Z,99820.38
2022-09-12T22:01:13.663Z,99828.94
2022-09-12T22:03:44.836Z,99833.72
2022-09-12T22:06:32.815Z,99833.28
2022-09-12T22:09:01.087Z,99821.81
2022-09-12T22:11:29.191Z,99824.97
2022-09-12T22:13:57.485Z,99812.44
2022-09-12T22:16:25.566Z,99811.31
2022-09-12T22:18:54.069Z,99818.50
2022-09-12T22:21:24.596Z,99824.16
2022-09-12T22:24:11.672Z,99831.00
2022-09-12T22:26:44.484Z,99814.09
2022-09-12T22:29:13.420Z,99830.81
2022-09-12T22:31:41.590Z,99836.28
2022-09-12T22:34:09.773Z,99835.91
2022-09-12T22:36:39.108Z,99850.81
2022-09-12T22:39:09.485Z,99850.97
2022-09-12T22:41:40.358Z,99845.88
2022-09-12T22:44:08.665Z,99846.38
2022-09-12T22:46:38.033Z,99844.94
2022-09-12T22:49:07.056Z,99843.81
2022-09-12T22:51:36.150Z,99843.44
2022-09-12T22:54:05.826Z,99841.91
2022-09-12T22:56:35.563Z,99843.16
2022-09-12T22:59:03.832Z,99842.47
2022-09-12T23:01:32.375Z,99852.56
2022-09-12T23:04:01.252Z,99855.09
2022-09-12T23:06:29.423Z,99846.50
2022-09-12T23:08:57.585Z,99855.56
2022-09-12T23:11:25.811Z,99852.63
2022-09-12T23:13:55.776Z,99844.03
2022-09-12T23:16:25.805Z,99852.63
2022-09-12T23:18:56.169Z,99843.19
2022-09-12T23:21:24.447Z,99842.59
2022-09-12T23:23:52.594Z,99839.53
2022-09-12T23:26:22.884Z,99842.56
2022-09-12T23:28:53.316Z,99834.31
2022-09-12T23:31:24.071Z,99838.66
2022-09-12T23:33:54.242Z,99834.66
2022-09-12T23:36:23.000Z,99831.47
2022-09-12T23:38:51.275Z,99830.63
2022-09-12T23:41:20.522Z,99837.19
2022-09-12T23:43:48.740Z,99827.75
2022-09-12T23:46:18.267Z,99831.91
2022-09-12T23:48:47.961Z,99829.88
2022-09-12T23:51:16.474Z,99842.31
2022-09-12T23:53:44.714Z,99834.78
2022-09-12T23:56:12.924Z,99827.88
2022-09-12T23:58:41.078Z,99824.22
